Time;durP1;ratioP1;P1;durP2;ratioP2;P2;SDS_P1;SDS_P2;PMS_P1;PMS_P2;Temp;Humidity;BMP_temperature;BMP_pressure;BME280_temperature;BME280_humidity;BME280_pressure;Samples;Min_cycle;Max_cycle;Signal;HPM_P1;HPM_P2
2023/02/23 00:01:50;;;;;;;14.88;6.40;;;;;;;;;;5017812;28;20668;-60
2023/02/23 00:04:17;;;;;;;17.55;6.43;;;;;;;;;;5024237;28;20226;-59
2023/02/23 00:06:43;;;;;;;18.77;6.82;;;;;;;;;;5025594;28;20171;-61
2023/02/23 00:09:21;;;;;;;15.65;6.20;;;;;;;;;;5023694;28;20179;-60
2023/02/23 00:11:48;;;;;;;17.60;6.18;;;;;;;;;;5024894;28;20182;-60
2023/02/23 00:14:26;;;;;;;19.30;6.57;;;;;;;;;;5025185;28;20162;-60
2023/02/23 00:16:52;;;;;;;14.77;6.30;;;;;;;;;;5016889;28;20253;-59
2023/02/23 00:19:18;;;;;;;13.32;6.35;;;;;;;;;;5016633;28;20171;-60
2023/02/23 00:21:44;;;;;;;13.75;6.38;;;;;;;;;;5015453;28;20170;-61
2023/02/23 00:24:12;;;;;;;12.60;6.72;;;;;;;;;;5015148;28;20290;-60
2023/02/23 00:26:39;;;;;;;15.02;6.80;;;;;;;;;;5013318;28;20170;-61
2023/02/23 00:29:06;;;;;;;14.50;6.90;;;;;;;;;;5013270;28;20288;-61
2023/02/23 00:31:32;;;;;;;18.10;7.18;;;;;;;;;;5014673;28;20215;-59
2023/02/23 00:34:00;;;;;;;14.32;6.28;;;;;;;;;;5015808;28;20198;-59
2023/02/23 00:36:27;;;;;;;18.48;7.18;;;;;;;;;;5015775;28;20235;-60
2023/02/23 00:38:59;;;;;;;14.20;6.28;;;;;;;;;;5015421;28;20198;-60
2023/02/23 00:41:27;;;;;;;11.98;6.78;;;;;;;;;;5015678;28;20158;-60
2023/02/23 00:43:55;;;;;;;15.43;6.88;;;;;;;;;;5015280;28;20173;-61
2023/02/23 00:46:22;;;;;;;18.50;7.38;;;;;;;;;;5015192;28;20176;-59
2023/02/23 00:48:50;;;;;;;19.45;7.15;;;;;;;;;;5014994;28;20223;-61
2023/02/23 00:51:17;;;;;;;13.25;6.80;;;;;;;;;;5015079;28;20170;-61
2023/02/23 00:53:44;;;;;;;16.15;7.88;;;;;;;;;;5014968;28;20211;-61
2023/02/23 00:56:11;;;;;;;15.85;6.50;;;;;;;;;;5014554;28;20193;-61
2023/02/23 00:58:37;;;;;;;16.42;7.30;;;;;;;;;;5014771;28;20199;-61
2023/02/23 01:01:07;;;;;;;14.77;7.00;;;;;;;;;;5013543;28;20182;-61
2023/02/23 01:03:35;;;;;;;15.88;8.05;;;;;;;;;;5014633;28;20334;-61
2023/02/23 01:06:05;;;;;;;15.35;7.35;;;;;;;;;;5015036;28;20245;-59
2023/02/23 01:08:35;;;;;;;17.48;7.65;;;;;;;;;;5014634;28;20178;-59
2023/02/23 01:11:15;;;;;;;17.30;7.70;;;;;;;;;;5014721;28;20174;-57
2023/02/23 01:13:42;;;;;;;18.00;8.00;;;;;;;;;;5014683;28;20588;-58
2023/02/23 01:16:08;;;;;;;15.70;8.32;;;;;;;;;;5014615;28;20323;-57
2023/02/23 01:18:35;;;;;;;15.90;8.35;;;;;;;;;;5014682;28;20599;-58
2023/02/23 01:21:01;;;;;;;17.23;8.32;;;;;;;;;;5014559;28;20261;-60
2023/02/23 01:23:27;;;;;;;16.77;7.80;;;;;;;;;;5014307;28;20173;-60
2023/02/23 01:25:54;;;;;;;16.92;7.97;;;;;;;;;;5014536;28;20173;-61
2023/02/23 01:28:21;;;;;;;19.90;8.90;;;;;;;;;;5014429;28;20177;-59
2023/02/23 01:30:47;;;;;;;17.75;8.27;;;;;;;;;;5014601;28;20185;-59
2023/02/23 01:33:13;;;;;;;20.40;8.50;;;;;;;;;;5015116;28;20174;-61
2023/02/23 01:35:38;;;;;;;19.58;8.27;;;;;;;;;;5014486;28;20265;-61
2023/02/23 01:38:04;;;;;;;22.15;8.93;;;;;;;;;;5014132;28;20202;-61
2023/02/23 01:40:31;;;;;;;17.17;8.68;;;;;;;;;;5013846;28;20170;-61
2023/02/23 01:42:59;;;;;;;19.00;8.40;;;;;;;;;;5013204;28;20194;-61
2023/02/23 01:45:30;;;;;;;19.88;8.85;;;;;;;;;;5013962;28;20209;-61
2023/02/23 01:48:00;;;;;;;17.45;8.40;;;;;;;;;;5014156;28;20182;-61
2023/02/23 01:50:27;;;;;;;18.10;8.88;;;;;;;;;;5014071;28;20255;-59
2023/02/23 01:52:53;;;;;;;18.70;9.40;;;;;;;;;;5014411;28;20251;-61
2023/02/23 01:55:24;;;;;;;17.45;8.77;;;;;;;;;;5014605;28;20623;-61
2023/02/23 01:57:54;;;;;;;16.75;8.32;;;;;;;;;;5013629;28;20688;-61
2023/02/23 02:00:24;;;;;;;17.08;8.50;;;;;;;;;;5013929;28;20513;-61
2023/02/23 02:02:51;;;;;;;22.13;9.15;;;;;;;;;;5031352;28;20185;-61
2023/02/23 02:05:18;;;;;;;19.35;9.50;;;;;;;;;;5033695;28;20170;-61
2023/02/23 02:07:46;;;;;;;20.83;9.45;;;;;;;;;;5023934;28;20227;-61
2023/02/23 02:12:39;;;;;;;20.00;9.88;;;;;;;;;;5016762;28;20170;-61
2023/02/23 02:15:06;;;;;;;19.40;9.43;;;;;;;;;;5020444;28;20182;-61
2023/02/23 02:17:42;;;;;;;18.33;9.18;;;;;;;;;;5014652;28;20201;-60
2023/02/23 02:20:31;;;;;;;19.55;10.05;;;;;;;;;;5013666;28;20216;-61
2023/02/23 02:22:57;;;;;;;19.65;9.90;;;;;;;;;;5013361;28;20593;-61
2023/02/23 02:25:29;;;;;;;17.92;9.50;;;;;;;;;;5013450;28;20173;-60
2023/02/23 02:28:07;;;;;;;18.02;9.73;;;;;;;;;;5013546;28;20209;-61
2023/02/23 02:30:48;;;;;;;19.02;9.75;;;;;;;;;;5013604;28;20158;-61
2023/02/23 02:33:14;;;;;;;17.67;9.65;;;;;;;;;;5013464;28;20462;-61
2023/02/23 02:35:59;;;;;;;24.08;10.10;;;;;;;;;;5013166;28;20177;-61
2023/02/23 02:38:41;;;;;;;18.08;10.50;;;;;;;;;;5013267;28;20198;-61
2023/02/23 02:41:20;;;;;;;16.60;9.48;;;;;;;;;;5013046;28;20706;-61
2023/02/23 02:44:06;;;;;;;21.77;10.45;;;;;;;;;;5013221;28;20165;-61
2023/02/23 02:46:36;;;;;;;22.75;10.13;;;;;;;;;;5026162;28;20610;-58
2023/02/23 02:49:05;;;;;;;16.08;10.18;;;;;;;;;;5013498;28;20213;-60
2023/02/23 02:51:47;;;;;;;19.65;9.88;;;;;;;;;;5013196;28;20278;-59
2023/02/23 02:54:19;;;;;;;20.52;9.73;;;;;;;;;;5011990;28;20158;-60
2023/02/23 02:56:46;;;;;;;19.15;9.85;;;;;;;;;;5013160;28;20158;-61
2023/02/23 04:18:21;;;;;;;19.05;9.95;;;;;;;;;;5026308;28;20207;-61
2023/02/23 04:20:47;;;;;;;17.15;10.38;;;;;;;;;;5020516;28;20170;-61
2023/02/23 04:23:13;;;;;;;19.38;10.27;;;;;;;;;;5015848;28;20174;-60
2023/02/23 04:25:39;;;;;;;19.90;10.55;;;;;;;;;;5015622;28;20198;-61
2023/02/23 04:28:05;;;;;;;27.30;10.55;;;;;;;;;;5015429;28;20166;-59
2023/02/23 04:30:31;;;;;;;18.60;10.57;;;;;;;;;;5015138;28;20223;-61
2023/02/23 04:32:58;;;;;;;19.23;10.10;;;;;;;;;;5015721;28;20209;-61
2023/02/23 04:35:26;;;;;;;19.20;9.90;;;;;;;;;;5015182;28;20609;-61
2023/02/23 04:37:54;;;;;;;18.60;9.80;;;;;;;;;;5015471;28;20236;-61
2023/02/23 04:40:20;;;;;;;19.10;10.55;;;;;;;;;;5015330;28;20257;-62
2023/02/23 04:42:46;;;;;;;19.98;9.93;;;;;;;;;;5015204;28;20183;-61
2023/02/23 04:45:12;;;;;;;21.38;10.50;;;;;;;;;;5015018;28;20564;-62
2023/02/23 04:47:38;;;;;;;18.85;9.60;;;;;;;;;;5015071;28;20226;-61
2023/02/23 04:50:05;;;;;;;20.77;10.70;;;;;;;;;;5016121;28;20273;-61
2023/02/23 04:52:31;;;;;;;16.05;10.20;;;;;;;;;;5015306;28;20166;-60
2023/02/23 04:54:57;;;;;;;21.50;10.60;;;;;;;;;;5014997;28;20177;-61
2023/02/23 04:57:22;;;;;;;19.00;10.25;;;;;;;;;;5014734;28;20493;-61
2023/02/23 04:59:48;;;;;;;19.88;10.77;;;;;;;;;;5014661;28;20231;-59
2023/02/23 05:02:14;;;;;;;20.00;9.90;;;;;;;;;;5014520;28;20585;-60
2023/02/23 05:04:41;;;;;;;18.85;9.65;;;;;;;;;;5014569;28;20202;-61
2023/02/23 05:07:07;;;;;;;19.00;9.32;;;;;;;;;;5014510;28;20205;-60
2023/02/23 05:09:33;;;;;;;18.17;10.10;;;;;;;;;;5013915;28;20181;-61
2023/02/23 05:12:00;;;;;;;21.67;9.82;;;;;;;;;;5014452;28;20510;-61
2023/02/23 05:14:26;;;;;;;22.15;10.55;;;;;;;;;;5015010;28;20194;-60
2023/02/23 05:16:52;;;;;;;18.13;10.10;;;;;;;;;;5014090;28;20167;-61
2023/02/23 05:19:18;;;;;;;19.58;9.02;;;;;;;;;;5014141;28;20235;-61
2023/02/23 05:21:44;;;;;;;21.13;9.90;;;;;;;;;;5014390;28;20674;-61
2023/02/23 05:24:10;;;;;;;15.02;9.23;;;;;;;;;;5013763;28;20174;-60
2023/02/23 05:26:36;;;;;;;18.15;10.07;;;;;;;;;;5014123;28;20514;-60
2023/02/23 05:29:02;;;;;;;19.08;9.43;;;;;;;;;;5014590;28;20166;-60
2023/02/23 05:31:28;;;;;;;18.67;9.77;;;;;;;;;;5014560;28;20159;-60
2023/02/23 05:33:54;;;;;;;18.77;9.45;;;;;;;;;;5014686;28;20186;-60
2023/02/23 05:36:21;;;;;;;18.83;9.40;;;;;;;;;;5014737;28;20223;-59
2023/02/23 05:38:47;;;;;;;19.35;8.73;;;;;;;;;;5017360;28;20254;-60
2023/02/23 05:41:15;;;;;;;18.52;9.40;;;;;;;;;;5021876;28;20166;-61
2023/02/23 05:43:41;;;;;;;19.13;9.43;;;;;;;;;;5025902;28;20158;-61
2023/02/23 05:46:07;;;;;;;18.67;9.52;;;;;;;;;;5021919;28;20177;-62
2023/02/23 05:48:33;;;;;;;16.77;9.48;;;;;;;;;;5021027;28;20167;-61
2023/02/23 05:51:07;;;;;;;20.20;8.68;;;;;;;;;;5018582;28;20616;-59
2023/02/23 05:53:33;;;;;;;18.60;8.90;;;;;;;;;;5016243;28;20170;-61
2023/02/23 05:55:59;;;;;;;20.45;9.45;;;;;;;;;;5015262;28;20175;-60
2023/02/23 05:58:25;;;;;;;18.08;9.45;;;;;;;;;;5014095;28;20204;-60
2023/02/23 06:00:51;;;;;;;15.00;9.27;;;;;;;;;;5013949;28;20488;-59
2023/02/23 06:03:17;;;;;;;17.60;9.68;;;;;;;;;;5013610;28;20213;-62
2023/02/23 06:05:48;;;;;;;16.63;8.80;;;;;;;;;;5014242;28;20159;-60
2023/02/23 06:08:14;;;;;;;18.20;9.45;;;;;;;;;;5014144;28;20159;-59
2023/02/23 06:10:40;;;;;;;17.25;8.68;;;;;;;;;;5013988;28;20549;-60
2023/02/23 06:13:06;;;;;;;22.65;9.82;;;;;;;;;;5014357;28;20541;-58
2023/02/23 06:15:32;;;;;;;16.08;9.52;;;;;;;;;;5013985;28;20179;-61
2023/02/23 06:17:58;;;;;;;15.90;8.77;;;;;;;;;;5013538;28;20198;-59
2023/02/23 06:20:24;;;;;;;17.75;9.25;;;;;;;;;;5012932;28;20260;-59
2023/02/23 06:22:50;;;;;;;16.52;9.43;;;;;;;;;;5013322;28;20336;-59
2023/02/23 06:25:16;;;;;;;20.63;9.57;;;;;;;;;;5012517;28;20272;-60
2023/02/23 06:27:44;;;;;;;17.08;8.65;;;;;;;;;;5013343;28;20173;-62
2023/02/23 06:30:12;;;;;;;17.98;9.25;;;;;;;;;;5013216;28;20170;-59
2023/02/23 06:32:38;;;;;;;16.45;8.98;;;;;;;;;;5013124;28;20303;-60
2023/02/23 06:35:04;;;;;;;18.45;9.07;;;;;;;;;;5013383;28;20189;-61
2023/02/23 06:37:31;;;;;;;16.23;8.80;;;;;;;;;;5013279;28;20197;-57
2023/02/23 06:39:57;;;;;;;19.58;9.43;;;;;;;;;;5013391;28;20174;-57
2023/02/23 06:42:23;;;;;;;24.08;9.88;;;;;;;;;;5013185;28;20199;-60
2023/02/23 06:44:49;;;;;;;16.08;9.40;;;;;;;;;;5013787;28;20213;-59
2023/02/23 06:47:15;;;;;;;18.45;9.75;;;;;;;;;;5013353;28;20576;-62
2023/02/23 06:49:40;;;;;;;18.38;10.40;;;;;;;;;;5012339;28;20593;-61
2023/02/23 06:52:12;;;;;;;19.17;9.93;;;;;;;;;;5013229;28;20213;-61
2023/02/23 06:54:38;;;;;;;15.80;8.68;;;;;;;;;;5013279;28;20201;-60
2023/02/23 06:57:05;;;;;;;17.95;9.48;;;;;;;;;;5012974;28;20238;-61
2023/02/23 06:59:31;;;;;;;20.88;10.18;;;;;;;;;;5012614;28;20197;-60
2023/02/23 07:01:57;;;;;;;16.15;9.65;;;;;;;;;;5012872;28;20509;-61
2023/02/23 07:04:23;;;;;;;16.70;9.02;;;;;;;;;;5012878;28;20178;-60
2023/02/23 07:06:48;;;;;;;16.52;9.23;;;;;;;;;;5012537;28;20531;-61
2023/02/23 07:09:15;;;;;;;18.67;9.90;;;;;;;;;;5013285;28;20178;-61
2023/02/23 07:11:43;;;;;;;20.33;10.30;;;;;;;;;;5012672;28;20252;-60
2023/02/23 07:14:10;;;;;;;13.18;8.95;;;;;;;;;;5012628;28;20485;-60
2023/02/23 07:16:37;;;;;;;18.45;9.27;;;;;;;;;;5012990;28;20679;-61
2023/02/23 07:19:03;;;;;;;20.90;9.63;;;;;;;;;;5012569;28;20202;-61
2023/02/23 07:21:33;;;;;;;18.65;9.65;;;;;;;;;;5012365;28;20613;-61
2023/02/23 07:24:03;;;;;;;21.88;9.82;;;;;;;;;;5012786;28;20178;-61
2023/02/23 07:26:30;;;;;;;19.02;9.60;;;;;;;;;;5012769;28;20170;-60
2023/02/23 07:28:56;;;;;;;18.55;9.27;;;;;;;;;;5012673;28;20192;-60
2023/02/23 07:31:22;;;;;;;14.40;8.90;;;;;;;;;;5012631;28;20167;-58
2023/02/23 07:33:48;;;;;;;19.63;9.13;;;;;;;;;;5012652;28;20615;-59
2023/02/23 07:36:14;;;;;;;24.45;10.10;;;;;;;;;;5012158;28;20250;-58
2023/02/23 07:38:40;;;;;;;21.45;9.43;;;;;;;;;;5012527;28;20194;-58
2023/02/23 07:41:06;;;;;;;20.83;10.00;;;;;;;;;;5013842;28;20166;-57
2023/02/23 07:43:32;;;;;;;14.35;8.63;;;;;;;;;;5016016;28;20166;-61
2023/02/23 07:46:01;;;;;;;16.50;9.27;;;;;;;;;;5016603;28;20632;-60
2023/02/23 07:48:27;;;;;;;17.20;9.80;;;;;;;;;;5015956;28;20166;-62
2023/02/23 07:50:54;;;;;;;16.35;9.52;;;;;;;;;;5016226;28;20174;-60
2023/02/23 07:53:20;;;;;;;18.30;10.35;;;;;;;;;;5015959;28;20191;-59
2023/02/23 07:55:46;;;;;;;17.67;9.70;;;;;;;;;;5015990;28;20174;-60
2023/02/23 07:58:12;;;;;;;17.80;9.75;;;;;;;;;;5015652;28;20206;-63
2023/02/23 08:00:39;;;;;;;17.42;9.35;;;;;;;;;;5015901;28;20178;-61
2023/02/23 08:03:04;;;;;;;18.77;9.75;;;;;;;;;;5015484;28;20186;-60
2023/02/23 08:05:30;;;;;;;19.02;9.20;;;;;;;;;;5016331;28;20167;-61
2023/02/23 08:07:57;;;;;;;16.42;9.13;;;;;;;;;;5015738;28;20206;-62
2023/02/23 08:10:23;;;;;;;21.63;10.00;;;;;;;;;;5015380;28;20188;-62
2023/02/23 08:12:49;;;;;;;20.85;10.15;;;;;;;;;;5035593;28;20162;-61
2023/02/23 08:15:15;;;;;;;20.85;10.15;;;;;;;;;;5036972;28;20230;-59
2023/02/23 08:17:42;;;;;;;19.05;9.75;;;;;;;;;;5033960;28;20277;-61
2023/02/23 08:20:09;;;;;;;18.35;9.95;;;;;;;;;;5025701;28;20170;-62
2023/02/23 08:22:34;;;;;;;21.08;10.07;;;;;;;;;;5026920;28;20184;-62
2023/02/23 08:25:04;;;;;;;18.80;9.95;;;;;;;;;;5023537;28;20170;-61
2023/02/23 08:27:30;;;;;;;16.20;10.02;;;;;;;;;;5028596;28;20325;-61
2023/02/23 08:29:56;;;;;;;16.65;9.48;;;;;;;;;;5016711;28;20207;-61
2023/02/23 08:32:22;;;;;;;21.10;10.10;;;;;;;;;;5016926;28;20167;-60
2023/02/23 08:34:48;;;;;;;17.08;9.70;;;;;;;;;;5014160;28;20201;-59
2023/02/23 08:37:16;;;;;;;18.52;10.32;;;;;;;;;;5015416;28;20166;-61
2023/02/23 08:39:42;;;;;;;19.60;10.23;;;;;;;;;;5015243;28;20162;-58
2023/02/23 08:42:08;;;;;;;21.45;11.25;;;;;;;;;;5015161;28;20176;-60
2023/02/23 08:44:34;;;;;;;21.33;10.38;;;;;;;;;;5015098;28;20644;-58
2023/02/23 08:47:03;;;;;;;24.52;10.82;;;;;;;;;;5014936;28;20498;-60
2023/02/23 08:49:31;;;;;;;20.95;10.88;;;;;;;;;;5014935;28;20159;-60
2023/02/23 08:51:57;;;;;;;22.63;10.80;;;;;;;;;;5013978;28;20198;-58
2023/02/23 08:54:23;;;;;;;25.42;10.93;;;;;;;;;;5014249;28;20617;-61
2023/02/23 08:56:49;;;;;;;20.38;11.05;;;;;;;;;;5014481;28;20596;-61
2023/02/23 08:59:15;;;;;;;23.17;10.82;;;;;;;;;;5014774;28;20272;-60
2023/02/23 09:01:42;;;;;;;24.75;11.32;;;;;;;;;;5015087;28;20174;-61
2023/02/23 09:04:08;;;;;;;21.73;10.40;;;;;;;;;;5014461;28;20270;-61
2023/02/23 09:06:34;;;;;;;28.08;11.40;;;;;;;;;;5013573;28;20603;-61
2023/02/23 09:09:00;;;;;;;23.83;11.85;;;;;;;;;;5014842;28;20170;-61
2023/02/23 09:11:26;;;;;;;27.88;12.65;;;;;;;;;;5014598;28;20166;-61
2023/02/23 09:13:52;;;;;;;23.38;11.98;;;;;;;;;;5015295;28;20186;-61
2023/02/23 09:16:18;;;;;;;24.52;10.95;;;;;;;;;;5016346;28;20231;-61
2023/02/23 09:18:44;;;;;;;27.17;11.73;;;;;;;;;;5016568;28;20202;-60
2023/02/23 09:21:17;;;;;;;31.15;12.88;;;;;;;;;;5018387;28;20178;-61
2023/02/23 09:23:44;;;;;;;24.52;11.50;;;;;;;;;;5015756;28;20186;-60
2023/02/23 09:26:10;;;;;;;27.23;12.38;;;;;;;;;;5015816;28;20609;-61
2023/02/23 09:28:37;;;;;;;25.73;11.68;;;;;;;;;;5015877;28;20548;-60
2023/02/23 09:31:14;;;;;;;28.58;12.38;;;;;;;;;;5015651;28;20257;-60
2023/02/23 09:33:40;;;;;;;25.55;12.30;;;;;;;;;;5014607;28;20228;-62
2023/02/23 09:36:07;;;;;;;27.38;12.43;;;;;;;;;;5014065;28;20616;-60
2023/02/23 09:38:33;;;;;;;31.42;12.88;;;;;;;;;;5014163;28;20205;-62
2023/02/23 09:40:59;;;;;;;39.17;13.50;;;;;;;;;;5014590;28;20545;-61
2023/02/23 09:43:49;;;;;;;24.08;12.65;;;;;;;;;;5014229;28;20166;-60
2023/02/23 09:46:30;;;;;;;27.15;12.35;;;;;;;;;;5014427;28;20522;-59
2023/02/23 09:48:58;;;;;;;25.63;12.70;;;;;;;;;;5014176;28;20197;-62
2023/02/23 09:51:24;;;;;;;30.13;13.15;;;;;;;;;;5013463;28;20597;-61
2023/02/23 09:53:53;;;;;;;24.85;12.32;;;;;;;;;;5015054;28;20542;-61
2023/02/23 09:56:39;;;;;;;28.65;13.45;;;;;;;;;;5014239;28;20204;-61
2023/02/23 09:59:06;;;;;;;31.50;13.57;;;;;;;;;;5012731;28;20198;-61
2023/02/23 10:01:38;;;;;;;23.88;12.63;;;;;;;;;;5015177;28;20166;-60
2023/02/23 10:04:04;;;;;;;27.33;12.98;;;;;;;;;;5013495;28;20178;-60
2023/02/23 10:06:30;;;;;;;27.85;12.38;;;;;;;;;;5013999;28;20170;-60
2023/02/23 10:09:15;;;;;;;27.65;13.38;;;;;;;;;;5013902;28;20265;-61
2023/02/23 10:11:45;;;;;;;30.00;13.63;;;;;;;;;;5013924;28;20174;-61
2023/02/23 10:14:30;;;;;;;26.25;13.50;;;;;;;;;;5013785;28;20178;-62
2023/02/23 10:17:05;;;;;;;29.20;13.27;;;;;;;;;;5013997;28;20189;-61
2023/02/23 10:19:55;;;;;;;24.13;12.43;;;;;;;;;;5013964;28;20299;-60
2023/02/23 10:22:21;;;;;;;29.40;13.10;;;;;;;;;;5022969;28;20182;-62
2023/02/23 10:24:54;;;;;;;23.88;12.00;;;;;;;;;;5013856;28;20170;-62
2023/02/23 10:27:22;;;;;;;25.25;12.68;;;;;;;;;;5013764;28;20173;-62
2023/02/23 10:29:50;;;;;;;27.70;12.45;;;;;;;;;;5013084;28;20582;-62
2023/02/23 10:32:26;;;;;;;29.10;13.23;;;;;;;;;;5013524;28;20253;-61
2023/02/23 10:34:53;;;;;;;27.42;11.70;;;;;;;;;;5013128;28;20245;-61
2023/02/23 10:37:19;;;;;;;23.05;13.00;;;;;;;;;;5013605;28;20171;-57
2023/02/23 10:39:48;;;;;;;27.83;13.02;;;;;;;;;;5013173;28;20194;-59
2023/02/23 10:42:17;;;;;;;24.65;12.25;;;;;;;;;;5013049;28;20589;-59
2023/02/23 10:44:44;;;;;;;27.08;12.27;;;;;;;;;;5013515;28;20501;-58
2023/02/23 10:47:14;;;;;;;24.17;12.15;;;;;;;;;;5013340;28;20602;-59
2023/02/23 10:49:45;;;;;;;26.67;12.50;;;;;;;;;;5013470;28;20534;-59
2023/02/23 10:52:12;;;;;;;25.73;12.75;;;;;;;;;;5013414;28;20155;-61
2023/02/23 10:54:43;;;;;;;26.05;12.63;;;;;;;;;;5013414;28;20216;-59
2023/02/23 10:57:12;;;;;;;25.63;12.13;;;;;;;;;;5013701;28;20174;-61
2023/02/23 10:59:58;;;;;;;29.27;13.52;;;;;;;;;;5013315;28;20335;-60
2023/02/23 11:02:26;;;;;;;28.73;11.75;;;;;;;;;;5013000;28;20273;-60
2023/02/23 11:04:53;;;;;;;29.73;13.07;;;;;;;;;;5013015;28;20307;-61
2023/02/23 11:07:25;;;;;;;24.70;11.77;;;;;;;;;;5013206;28;20192;-61
2023/02/23 11:09:52;;;;;;;23.27;11.82;;;;;;;;;;5012950;28;20230;-60
2023/02/23 11:12:23;;;;;;;27.65;13.15;;;;;;;;;;5014464;28;20175;-61
2023/02/23 11:14:50;;;;;;;29.65;13.07;;;;;;;;;;5012539;28;20163;-60
2023/02/23 11:17:36;;;;;;;26.75;12.25;;;;;;;;;;5012739;28;20182;-60
2023/02/23 11:20:04;;;;;;;23.45;12.10;;;;;;;;;;5013276;28;20585;-61
2023/02/23 11:22:32;;;;;;;28.00;11.65;;;;;;;;;;5012823;28;20193;-61
2023/02/23 11:24:58;;;;;;;25.48;12.07;;;;;;;;;;5012762;28;20224;-59
2023/02/23 11:27:26;;;;;;;24.13;12.50;;;;;;;;;;5012551;28;20601;-61
2023/02/23 11:29:55;;;;;;;28.17;13.00;;;;;;;;;;5012551;28;20170;-60
2023/02/23 11:32:23;;;;;;;26.42;12.40;;;;;;;;;;5012639;28;20593;-60
2023/02/23 11:35:09;;;;;;;22.48;12.45;;;;;;;;;;5013195;28;20166;-58
2023/02/23 11:37:36;;;;;;;21.60;12.13;;;;;;;;;;5012275;28;20182;-56
2023/02/23 11:40:16;;;;;;;24.42;12.02;;;;;;;;;;5012842;28;20511;-57
2023/02/23 11:42:51;;;;;;;20.75;12.65;;;;;;;;;;5012094;28;20620;-58
2023/02/23 11:45:19;;;;;;;22.48;12.05;;;;;;;;;;5012344;28;20585;-62
2023/02/23 11:47:47;;;;;;;22.63;12.65;;;;;;;;;;5013353;28;20163;-62
2023/02/23 11:50:29;;;;;;;24.63;13.48;;;;;;;;;;5012416;28;20596;-62
2023/02/23 11:53:18;;;;;;;25.65;14.60;;;;;;;;;;5012504;28;20543;-62
2023/02/23 11:55:49;;;;;;;25.10;13.88;;;;;;;;;;5012455;28;20246;-59
2023/02/23 11:58:18;;;;;;;27.38;17.23;;;;;;;;;;5011266;28;20439;-60
2023/02/23 12:00:53;;;;;;;24.67;14.25;;;;;;;;;;5012099;28;20662;-59
2023/02/23 12:03:21;;;;;;;23.40;13.77;;;;;;;;;;5012075;28;20268;-61
2023/02/23 12:05:52;;;;;;;23.45;14.10;;;;;;;;;;5012162;28;20185;-61
2023/02/23 12:08:26;;;;;;;22.35;13.15;;;;;;;;;;5012307;28;20230;-61
2023/02/23 12:10:55;;;;;;;25.20;14.38;;;;;;;;;;5012291;28;20612;-61
2023/02/23 12:13:27;;;;;;;25.58;13.77;;;;;;;;;;5015440;28;20182;-62
2023/02/23 12:15:54;;;;;;;24.23;13.50;;;;;;;;;;5023079;28;20225;-60
2023/02/23 12:18:28;;;;;;;25.58;14.10;;;;;;;;;;5021104;28;20194;-60
2023/02/23 12:20:55;;;;;;;24.60;13.82;;;;;;;;;;5024586;28;20573;-60
2023/02/23 12:23:24;;;;;;;25.52;13.73;;;;;;;;;;5022759;28;20244;-61
2023/02/23 12:25:50;;;;;;;24.75;13.68;;;;;;;;;;5022377;28;20197;-60
2023/02/23 12:28:19;;;;;;;31.70;15.40;;;;;;;;;;5026461;28;20227;-61
2023/02/23 12:30:51;;;;;;;33.22;16.50;;;;;;;;;;5024301;28;20181;-61
2023/02/23 12:33:17;;;;;;;30.25;17.20;;;;;;;;;;5018651;28;20612;-62
2023/02/23 12:35:46;;;;;;;28.42;15.80;;;;;;;;;;5016963;28;20170;-61
2023/02/23 12:38:17;;;;;;;30.58;16.48;;;;;;;;;;5015803;28;20654;-62
2023/02/23 12:40:43;;;;;;;31.30;15.80;;;;;;;;;;5015727;28;20155;-59
2023/02/23 12:43:28;;;;;;;36.65;17.20;;;;;;;;;;5015111;28;20185;-60
2023/02/23 12:45:56;;;;;;;33.42;17.13;;;;;;;;;;5015639;28;20154;-59
2023/02/23 12:48:36;;;;;;;35.17;17.00;;;;;;;;;;5017091;28;20178;-61
2023/02/23 12:51:06;;;;;;;38.20;17.80;;;;;;;;;;5017674;28;20154;-62
2023/02/23 12:53:39;;;;;;;35.83;17.00;;;;;;;;;;5018008;28;20179;-61
2023/02/23 12:56:18;;;;;;;35.25;17.35;;;;;;;;;;5016220;28;20262;-61
2023/02/23 12:58:50;;;;;;;35.50;17.85;;;;;;;;;;5016786;28;20589;-61
2023/02/23 13:01:20;;;;;;;35.53;18.35;;;;;;;;;;5016399;28;20165;-61
2023/02/23 13:03:46;;;;;;;39.88;17.45;;;;;;;;;;5015652;28;20196;-59
2023/02/23 13:06:38;;;;;;;31.98;16.77;;;;;;;;;;5014897;28;20166;-60
2023/02/23 13:09:20;;;;;;;36.17;18.27;;;;;;;;;;5014600;28;20570;-59
2023/02/23 13:11:46;;;;;;;34.08;16.92;;;;;;;;;;5015014;28;20453;-59
2023/02/23 13:14:42;;;;;;;35.03;16.90;;;;;;;;;;5015328;28;20247;-61
2023/02/23 13:17:24;;;;;;;35.22;16.23;;;;;;;;;;5031061;28;20615;-61
2023/02/23 13:19:53;;;;;;;34.33;16.77;;;;;;;;;;5014807;28;20597;-62
2023/02/23 13:22:32;;;;;;;31.67;15.90;;;;;;;;;;5014809;28;20198;-60
2023/02/23 13:25:00;;;;;;;32.80;15.23;;;;;;;;;;5014810;28;20170;-62
2023/02/23 13:27:38;;;;;;;32.20;15.32;;;;;;;;;;5014593;28;20529;-61
2023/02/23 13:30:04;;;;;;;29.55;13.40;;;;;;;;;;5014659;28;20215;-61
2023/02/23 13:32:32;;;;;;;30.77;15.30;;;;;;;;;;5014572;28;20548;-60
2023/02/23 13:35:06;;;;;;;28.60;15.32;;;;;;;;;;5014408;28;20167;-60
2023/02/23 13:37:48;;;;;;;29.65;14.27;;;;;;;;;;5014995;28;20653;-61
2023/02/23 13:40:17;;;;;;;30.92;14.25;;;;;;;;;;5014566;28;20182;-61
2023/02/23 13:42:47;;;;;;;31.40;14.73;;;;;;;;;;5014652;28;20554;-61
2023/02/23 13:45:24;;;;;;;31.40;13.77;;;;;;;;;;5014436;28;20151;-60
2023/02/23 13:47:56;;;;;;;29.90;13.70;;;;;;;;;;5014032;28;20165;-60
2023/02/23 13:50:26;;;;;;;32.95;14.38;;;;;;;;;;5014371;28;20166;-61
2023/02/23 13:52:57;;;;;;;36.67;15.80;;;;;;;;;;5014097;28;20204;-61
2023/02/23 13:55:26;;;;;;;30.83;14.85;;;;;;;;;;5014528;28;20241;-61
2023/02/23 13:58:15;;;;;;;42.10;17.73;;;;;;;;;;5014005;28;20215;-62
2023/02/23 14:00:42;;;;;;;41.67;18.23;;;;;;;;;;5014397;28;20147;-62
2023/02/23 14:03:19;;;;;;;45.78;21.63;;;;;;;;;;5013135;28;20526;-61
2023/02/23 14:05:46;;;;;;;44.65;19.88;;;;;;;;;;5014029;28;20146;-61
2023/02/23 14:08:34;;;;;;;46.28;19.35;;;;;;;;;;5013963;28;20537;-61
2023/02/23 14:11:01;;;;;;;48.22;20.90;;;;;;;;;;5013718;28;20170;-59
2023/02/23 14:13:29;;;;;;;47.35;20.70;;;;;;;;;;5013615;28;20604;-61
2023/02/23 14:16:15;;;;;;;55.97;20.85;;;;;;;;;;5013678;28;20179;-61
2023/02/23 14:18:58;;;;;;;66.40;23.25;;;;;;;;;;5013835;28;20281;-61
2023/02/23 14:21:29;;;;;;;66.35;25.15;;;;;;;;;;5013851;28;20174;-61
2023/02/23 14:24:01;;;;;;;73.50;26.77;;;;;;;;;;5013541;28;20631;-60
2023/02/23 14:26:27;;;;;;;77.72;28.50;;;;;;;;;;5013622;28;20533;-61
2023/02/23 14:29:12;;;;;;;90.93;29.38;;;;;;;;;;5013411;28;20218;-60
2023/02/23 14:31:38;;;;;;;78.65;28.90;;;;;;;;;;5013505;28;20174;-60
2023/02/23 14:34:08;;;;;;;87.32;28.42;;;;;;;;;;5013214;28;20185;-60
2023/02/23 14:36:35;;;;;;;83.88;30.15;;;;;;;;;;5013650;28;20181;-60
2023/02/23 14:39:03;;;;;;;83.53;28.35;;;;;;;;;;5013644;28;20205;-58
2023/02/23 14:41:48;;;;;;;92.00;31.58;;;;;;;;;;5013663;28;20231;-61
2023/02/23 14:44:21;;;;;;;92.28;30.67;;;;;;;;;;5013317;28;20675;-58
2023/02/23 14:46:49;;;;;;;84.78;28.58;;;;;;;;;;5013488;28;20207;-61
2023/02/23 14:49:21;;;;;;;85.68;31.40;;;;;;;;;;5013341;28;20253;-62
2023/02/23 14:51:48;;;;;;;78.47;29.13;;;;;;;;;;5013488;28;20178;-61
2023/02/23 14:54:25;;;;;;;77.47;27.67;;;;;;;;;;5013679;28;20601;-58
2023/02/23 14:56:53;;;;;;;76.38;27.85;;;;;;;;;;5013064;28;20178;-60
2023/02/23 14:59:25;;;;;;;74.88;26.00;;;;;;;;;;5013275;28;20201;-62
2023/02/23 15:01:54;;;;;;;69.75;26.80;;;;;;;;;;5013216;28;20184;-61
2023/02/23 15:04:22;;;;;;;71.60;26.27;;;;;;;;;;5012749;28;20186;-60
2023/02/23 15:06:48;;;;;;;66.18;24.90;;;;;;;;;;5012724;28;20597;-61
2023/02/23 15:09:19;;;;;;;70.15;24.73;;;;;;;;;;5012200;28;20231;-61
2023/02/23 15:11:48;;;;;;;68.50;26.25;;;;;;;;;;5013228;28;20170;-60
2023/02/23 15:14:15;;;;;;;69.88;25.80;;;;;;;;;;5012490;28;20170;-60
2023/02/23 15:16:43;;;;;;;67.25;24.52;;;;;;;;;;5013685;28;20231;-60
2023/02/23 15:19:13;;;;;;;69.75;25.17;;;;;;;;;;5012865;28;20276;-61
2023/02/23 15:21:39;;;;;;;68.47;24.58;;;;;;;;;;5013310;28;20200;-61
2023/02/23 15:24:12;;;;;;;69.60;26.05;;;;;;;;;;5013912;28;20601;-60
2023/02/23 15:26:39;;;;;;;67.53;25.20;;;;;;;;;;5013371;28;20239;-60
2023/02/23 15:29:16;;;;;;;66.25;24.95;;;;;;;;;;5013438;28;20170;-59
2023/02/23 15:31:50;;;;;;;72.15;25.10;;;;;;;;;;5013183;28;20185;-60
2023/02/23 15:34:18;;;;;;;65.07;24.70;;;;;;;;;;5013847;28;20169;-60
2023/02/23 15:36:46;;;;;;;61.90;24.15;;;;;;;;;;5013113;28;20185;-61
2023/02/23 15:39:16;;;;;;;67.25;24.77;;;;;;;;;;5012665;28;20633;-59
2023/02/23 15:41:45;;;;;;;70.22;24.70;;;;;;;;;;5012987;28;20166;-60
2023/02/23 15:44:10;;;;;;;64.78;23.70;;;;;;;;;;5012615;28;20242;-61
2023/02/23 15:46:37;;;;;;;64.05;23.88;;;;;;;;;;5013178;28;20174;-61
2023/02/23 15:49:05;;;;;;;61.85;24.67;;;;;;;;;;5012526;28;20170;-61
2023/02/23 15:51:43;;;;;;;60.28;24.23;;;;;;;;;;5012875;28;20163;-61
2023/02/23 15:54:18;;;;;;;66.90;24.50;;;;;;;;;;5012654;28;20227;-61
2023/02/23 15:56:48;;;;;;;69.40;23.98;;;;;;;;;;5012676;28;20188;-61